Time;durP1;ratioP1;P1;durP2;ratioP2;P2;SDS_P1;SDS_P2;PMS_P1;PMS_P2;Temp;Humidity;BMP_temperature;BMP_pressure;BME280_temperature;BME280_humidity;BME280_pressure;Samples;Min_cycle;Max_cycle;Signal;HPM_P1;HPM_P2
2023/06/29 00:00:20;;;;;;;36.97;28.13;;;19.40;99.90;;;;;;5094795;28;20048;-66
2023/06/29 00:02:50;;;;;;;34.95;25.55;;;19.30;99.90;;;;;;5095139;28;20397;-66
2023/06/29 00:05:18;;;;;;;35.90;29.15;;;19.30;99.90;;;;;;5075582;28;20121;-66
2023/06/29 00:07:44;;;;;;;36.45;27.38;;;19.30;99.90;;;;;;5075153;28;20044;-66
2023/06/29 00:10:11;;;;;;;36.53;25.50;;;19.30;99.90;;;;;;5074668;28;20738;-66
2023/06/29 00:12:37;;;;;;;36.80;26.92;;;19.30;99.90;;;;;;5074466;28;20106;-66
2023/06/29 00:15:04;;;;;;;38.55;27.92;;;19.40;99.90;;;;;;5075724;28;20056;-66
2023/06/29 00:17:31;;;;;;;36.33;26.58;;;19.30;99.90;;;;;;5094634;28;20101;-65
2023/06/29 00:20:00;;;;;;;35.67;28.00;;;19.40;99.90;;;;;;5094720;28;20109;-66
2023/06/29 00:22:26;;;;;;;33.05;27.75;;;19.40;99.90;;;;;;5095100;28;20113;-66
2023/06/29 00:24:56;;;;;;;35.58;26.98;;;19.50;99.90;;;;;;5095187;28;20066;-66
2023/06/29 00:27:23;;;;;;;32.65;26.65;;;19.40;99.90;;;;;;5094194;28;20052;-66
2023/06/29 00:29:50;;;;;;;34.30;26.85;;;19.40;99.90;;;;;;5094041;28;20074;-66
2023/06/29 00:32:16;;;;;;;36.20;26.75;;;19.40;99.90;;;;;;5094638;28;20044;-65
2023/06/29 00:34:42;;;;;;;31.40;26.00;;;19.40;99.90;;;;;;5094701;28;20055;-66
2023/06/29 00:37:09;;;;;;;35.88;27.55;;;19.40;99.90;;;;;;5094416;28;20082;-66
2023/06/29 00:39:35;;;;;;;35.67;27.25;;;19.40;99.90;;;;;;5094579;28;20441;-66
2023/06/29 00:42:03;;;;;;;39.20;27.40;;;19.40;99.90;;;;;;5093192;28;20048;-66
2023/06/29 00:44:29;;;;;;;31.85;25.33;;;19.30;99.90;;;;;;5071541;28;20468;-66
2023/06/29 00:46:55;;;;;;;36.45;27.58;;;19.40;99.90;;;;;;5093032;28;20059;-66
2023/06/29 00:49:22;;;;;;;34.28;26.15;;;19.30;99.90;;;;;;5093656;28;20044;-66
2023/06/29 00:51:53;;;;;;;37.72;26.98;;;19.30;99.90;;;;;;5093490;28;20047;-66
2023/06/29 00:54:20;;;;;;;32.50;26.90;;;19.30;99.90;;;;;;5093707;28;20052;-66
2023/06/29 00:56:47;;;;;;;35.55;26.10;;;19.40;99.90;;;;;;5094162;28;20055;-66
2023/06/29 00:59:14;;;;;;;35.65;27.40;;;19.30;99.90;;;;;;5093576;28;20380;-66
2023/06/29 01:01:41;;;;;;;33.25;24.38;;;19.30;99.90;;;;;;5094104;28;20048;-66
2023/06/29 01:04:08;;;;;;;33.38;25.92;;;19.30;99.90;;;;;;5094010;28;20074;-66
2023/06/29 01:06:44;;;;;;;32.35;25.67;;;19.30;99.90;;;;;;5095327;28;20048;-66
2023/06/29 01:09:11;;;;;;;32.40;25.70;;;19.30;99.90;;;;;;5093277;28;20460;-65
2023/06/29 01:11:38;;;;;;;33.22;26.30;;;19.30;99.90;;;;;;5094845;28;20051;-66
2023/06/29 01:14:06;;;;;;;33.25;25.95;;;19.30;99.90;;;;;;5094064;28;20071;-66
2023/06/29 01:16:35;;;;;;;33.05;25.45;;;19.30;99.90;;;;;;5093387;28;20052;-66
2023/06/29 01:19:05;;;;;;;34.40;26.02;;;19.30;99.90;;;;;;5093986;28;20378;-66
2023/06/29 01:21:39;;;;;;;31.40;24.25;;;19.30;99.90;;;;;;5092872;28;20058;-66
2023/06/29 01:24:08;;;;;;;31.20;25.40;;;19.30;99.90;;;;;;5092914;28;20483;-66
2023/06/29 01:26:38;;;;;;;30.38;25.50;;;19.30;99.90;;;;;;5093614;28;20365;-65
2023/06/29 01:29:05;;;;;;;35.20;25.23;;;19.20;99.90;;;;;;5093356;28;20048;-66
2023/06/29 01:31:31;;;;;;;31.95;25.27;;;19.30;99.90;;;;;;5092861;28;20040;-66
2023/06/29 01:33:57;;;;;;;33.95;24.58;;;19.20;99.90;;;;;;5092584;28;20435;-66
2023/06/29 01:36:45;;;;;;;33.60;24.95;;;19.20;99.90;;;;;;5093847;28;20044;-66
2023/06/29 01:39:17;;;;;;;34.25;26.17;;;19.30;99.90;;;;;;5093899;28;20052;-66
2023/06/29 01:41:45;;;;;;;34.33;25.65;;;19.20;99.90;;;;;;5094266;28;20440;-65
2023/06/29 01:44:16;;;;;;;31.63;25.38;;;19.30;99.90;;;;;;5093065;28;20058;-66
2023/06/29 01:46:43;;;;;;;31.55;25.70;;;19.30;99.90;;;;;;5093596;28;20052;-66
2023/06/29 01:49:10;;;;;;;36.33;26.00;;;19.30;99.90;;;;;;5093651;28;20052;-66
2023/06/29 01:51:37;;;;;;;36.17;26.63;;;19.30;99.90;;;;;;5092431;28;20044;-66
2023/06/29 01:54:03;;;;;;;32.05;24.70;;;19.30;99.90;;;;;;5092634;28;20407;-65
2023/06/29 01:56:29;;;;;;;35.10;26.55;;;19.20;99.90;;;;;;5093880;28;20070;-66
2023/06/29 01:58:56;;;;;;;31.88;24.30;;;19.20;99.90;;;;;;5092673;28;20048;-66
2023/06/29 02:01:22;;;;;;;32.60;25.35;;;19.30;99.90;;;;;;5093369;28;20040;-67
2023/06/29 02:03:48;;;;;;;36.42;25.95;;;19.20;99.90;;;;;;5092764;28;20044;-66
2023/06/29 02:06:15;;;;;;;34.90;25.88;;;19.30;99.90;;;;;;5093263;28;20055;-66
2023/06/29 02:08:42;;;;;;;32.65;25.38;;;19.30;99.90;;;;;;5093719;28;20048;-66
2023/06/29 02:11:08;;;;;;;31.08;24.92;;;19.30;99.90;;;;;;5093640;28;20056;-66
2023/06/29 02:13:34;;;;;;;33.60;25.02;;;19.20;99.90;;;;;;5093241;28;20048;-66
2023/06/29 02:16:01;;;;;;;31.17;24.00;;;19.20;99.90;;;;;;5097424;28;20125;-66
2023/06/29 02:18:27;;;;;;;34.20;24.92;;;19.20;99.90;;;;;;5097740;28;20434;-66
2023/06/29 02:20:53;;;;;;;31.20;24.63;;;19.20;99.90;;;;;;5097568;28;20081;-65
2023/06/29 02:23:19;;;;;;;31.85;24.48;;;19.20;99.90;;;;;;5097653;28;20388;-66
2023/06/29 02:25:46;;;;;;;30.80;24.15;;;19.20;99.90;;;;;;5097947;28;20169;-66
2023/06/29 02:28:12;;;;;;;32.75;24.00;;;19.30;99.90;;;;;;5096421;28;20058;-66
2023/06/29 02:30:38;;;;;;;32.92;25.15;;;19.20;99.90;;;;;;5096963;28;20054;-66
2023/06/29 02:33:04;;;;;;;31.45;24.15;;;19.10;99.90;;;;;;5095954;28;20052;-66
2023/06/29 02:35:31;;;;;;;31.77;24.83;;;19.20;99.90;;;;;;5096850;28;20044;-66
2023/06/29 02:37:57;;;;;;;32.97;23.52;;;19.20;99.90;;;;;;5096205;28;20109;-65
2023/06/29 02:40:23;;;;;;;31.48;22.95;;;19.20;99.90;;;;;;5096591;28;20044;-66
2023/06/29 02:42:49;;;;;;;30.90;24.02;;;19.10;99.90;;;;;;5097391;28;20052;-66
2023/06/29 02:45:15;;;;;;;30.88;22.88;;;19.20;99.90;;;;;;5097056;28;20048;-66
2023/06/29 02:47:42;;;;;;;29.85;22.92;;;19.10;99.90;;;;;;5097349;28;20063;-66
2023/06/29 02:50:08;;;;;;;32.47;21.85;;;19.20;99.90;;;;;;5097274;28;20052;-65
2023/06/29 02:52:35;;;;;;;30.33;23.52;;;19.20;99.90;;;;;;5095736;28;20059;-66
2023/06/29 02:55:01;;;;;;;29.60;21.95;;;19.10;99.90;;;;;;5096819;28;20056;-65
2023/06/29 02:57:27;;;;;;;26.67;22.63;;;19.10;99.90;;;;;;5096805;28;20040;-66
2023/06/29 02:59:53;;;;;;;28.13;22.38;;;19.20;99.90;;;;;;5096243;28;20048;-66
2023/06/29 03:02:19;;;;;;;31.00;23.13;;;19.20;99.90;;;;;;5095940;28;20052;-66
2023/06/29 03:04:46;;;;;;;27.55;22.58;;;19.10;99.90;;;;;;5096882;28;20052;-65
2023/06/29 03:07:12;;;;;;;29.83;22.40;;;19.20;99.90;;;;;;5096666;28;20048;-65
2023/06/29 03:09:38;;;;;;;32.20;22.83;;;19.10;99.90;;;;;;5095598;28;20121;-66
2023/06/29 03:12:05;;;;;;;29.05;24.45;;;19.20;99.90;;;;;;5078112;28;20055;-66
2023/06/29 03:14:31;;;;;;;32.08;23.83;;;19.10;99.90;;;;;;5095623;28;20452;-66
2023/06/29 03:16:58;;;;;;;33.28;24.27;;;19.20;99.90;;;;;;5095570;28;20147;-65
2023/06/29 03:19:24;;;;;;;28.60;23.20;;;19.20;99.90;;;;;;5095862;28;20044;-66
2023/06/29 03:21:50;;;;;;;31.92;22.83;;;19.10;99.90;;;;;;5094878;28;20479;-66
2023/06/29 03:24:17;;;;;;;31.13;22.63;;;19.20;99.90;;;;;;5094339;28;20406;-66
2023/06/29 03:26:43;;;;;;;30.38;24.13;;;19.10;99.90;;;;;;5093676;28;20051;-66
2023/06/29 03:29:09;;;;;;;31.35;22.05;;;19.20;99.90;;;;;;5094316;28;20514;-66
2023/06/29 03:31:35;;;;;;;30.55;22.67;;;19.20;99.90;;;;;;5094886;28;20051;-65
2023/06/29 03:34:02;;;;;;;30.65;21.95;;;19.20;99.90;;;;;;5093840;28;20392;-66
2023/06/29 03:36:28;;;;;;;32.70;23.05;;;19.20;99.90;;;;;;5094657;28;20055;-66
2023/06/29 03:38:54;;;;;;;32.25;23.42;;;19.20;99.90;;;;;;5094753;28;20044;-66
2023/06/29 03:41:20;;;;;;;30.95;23.67;;;19.20;99.90;;;;;;5094724;28;20519;-66
2023/06/29 03:43:46;;;;;;;35.38;24.77;;;19.20;99.90;;;;;;5076513;28;20051;-66
2023/06/29 03:46:13;;;;;;;32.53;24.30;;;19.20;99.90;;;;;;5073449;28;20491;-66
2023/06/29 03:48:39;;;;;;;31.77;24.08;;;19.20;99.90;;;;;;5076768;28;20058;-66
2023/06/29 03:51:05;;;;;;;30.83;24.63;;;19.20;99.90;;;;;;5076483;28;20055;-66
2023/06/29 03:53:32;;;;;;;32.28;24.17;;;19.20;99.90;;;;;;5076331;28;20040;-66
2023/06/29 03:55:58;;;;;;;31.02;23.52;;;19.20;99.90;;;;;;5077571;28;20426;-66
2023/06/29 03:58:24;;;;;;;32.83;25.15;;;19.20;99.90;;;;;;5095128;28;20055;-66
2023/06/29 04:00:50;;;;;;;39.85;25.08;;;19.30;99.90;;;;;;5076358;28;20357;-66
2023/06/29 04:03:17;;;;;;;36.08;25.15;;;19.40;99.90;;;;;;5075709;28;20055;-66
2023/06/29 04:05:43;;;;;;;31.30;23.65;;;19.30;99.90;;;;;;5075856;28;20384;-66
2023/06/29 04:08:09;;;;;;;34.47;25.50;;;19.40;99.90;;;;;;5076185;28;20056;-66
2023/06/29 04:10:35;;;;;;;38.38;24.65;;;19.40;99.90;;;;;;5075967;28;20083;-66
2023/06/29 04:13:02;;;;;;;30.38;22.92;;;19.30;99.90;;;;;;5075212;28;20766;-66
2023/06/29 04:15:28;;;;;;;30.13;23.85;;;19.40;99.90;;;;;;5074471;28;20054;-66
2023/06/29 04:17:54;;;;;;;29.27;22.63;;;19.40;99.90;;;;;;5076491;28;20051;-66
2023/06/29 04:20:20;;;;;;;31.70;24.00;;;19.40;99.90;;;;;;5076037;28;20089;-66
2023/06/29 04:22:47;;;;;;;33.08;23.50;;;19.40;99.90;;;;;;5094015;28;20048;-66
2023/06/29 04:25:13;;;;;;;29.08;23.80;;;19.40;99.90;;;;;;5075595;28;20491;-66
2023/06/29 04:27:40;;;;;;;29.20;22.88;;;19.50;99.90;;;;;;5075436;28;20392;-66
2023/06/29 04:30:08;;;;;;;29.25;22.55;;;19.40;99.90;;;;;;5075594;28;20405;-66
2023/06/29 04:32:35;;;;;;;31.27;23.92;;;19.50;99.90;;;;;;5075824;28;20047;-66
2023/06/29 04:35:01;;;;;;;31.33;23.88;;;19.60;99.90;;;;;;5074632;28;20052;-66
2023/06/29 04:37:36;;;;;;;31.90;24.95;;;19.60;99.90;;;;;;5075632;28;20052;-66
2023/06/29 04:40:06;;;;;;;27.52;23.17;;;19.70;99.90;;;;;;5076090;28;20044;-66
2023/06/29 04:42:32;;;;;;;31.13;21.88;;;19.70;99.90;;;;;;5075484;28;20048;-66
2023/06/29 04:45:00;;;;;;;36.15;23.95;;;19.70;99.90;;;;;;5075089;28;20066;-66
2023/06/29 04:47:32;;;;;;;30.17;23.77;;;19.80;99.90;;;;;;5075108;28;20056;-66
2023/06/29 04:49:58;;;;;;;28.48;23.23;;;19.80;99.90;;;;;;5075610;28;20055;-66
2023/06/29 04:52:26;;;;;;;32.15;23.55;;;19.80;99.90;;;;;;5075124;28;20051;-66
2023/06/29 04:54:52;;;;;;;29.25;23.95;;;19.90;99.90;;;;;;5057506;28;20043;-66
2023/06/29 04:57:19;;;;;;;33.15;22.73;;;19.80;99.90;;;;;;5075372;28;20105;-66
2023/06/29 04:59:45;;;;;;;31.48;23.00;;;19.90;99.90;;;;;;5093179;28;20797;-66
2023/06/29 05:02:11;;;;;;;32.83;24.42;;;19.90;99.90;;;;;;5075480;28;20083;-66
2023/06/29 05:04:43;;;;;;;30.92;23.13;;;19.90;99.90;;;;;;5075028;28;20105;-67
2023/06/29 05:07:09;;;;;;;29.38;24.00;;;19.80;99.90;;;;;;5084669;28;20368;-65
2023/06/29 05:09:36;;;;;;;30.70;23.77;;;19.90;99.90;;;;;;5087602;28;20048;-66
2023/06/29 05:12:02;;;;;;;30.75;22.88;;;19.90;99.90;;;;;;5089127;28;20059;-66
2023/06/29 05:14:28;;;;;;;30.95;24.42;;;19.90;99.90;;;;;;5087727;28;20055;-66
2023/06/29 05:16:54;;;;;;;30.45;23.33;;;19.90;99.90;;;;;;5090914;28;20059;-66
2023/06/29 05:19:21;;;;;;;34.50;25.00;;;19.90;99.90;;;;;;5082732;28;20044;-67
2023/06/29 05:21:47;;;;;;;32.47;24.67;;;19.90;99.90;;;;;;5082725;28;20044;-66
2023/06/29 05:24:13;;;;;;;32.58;24.15;;;19.90;99.90;;;;;;5078220;28;20051;-66
2023/06/29 05:26:39;;;;;;;32.00;24.08;;;19.90;99.90;;;;;;5079901;28;20476;-66
2023/06/29 05:29:13;;;;;;;33.03;24.15;;;19.90;99.90;;;;;;5078979;28;20048;-65
2023/06/29 05:31:39;;;;;;;32.30;24.55;;;19.90;99.90;;;;;;5073303;28;20045;-66
2023/06/29 05:34:05;;;;;;;34.05;24.42;;;19.80;99.90;;;;;;5069111;28;20044;-67
2023/06/29 05:36:31;;;;;;;32.83;24.70;;;19.80;99.90;;;;;;5073422;28;20071;-66
2023/06/29 05:38:58;;;;;;;31.33;23.90;;;19.80;99.90;;;;;;5074210;28;20045;-65
2023/06/29 05:41:24;;;;;;;33.53;25.33;;;19.80;99.90;;;;;;5073267;28;20117;-66
2023/06/29 05:43:50;;;;;;;33.00;24.80;;;19.80;99.90;;;;;;5072722;28;20056;-66
2023/06/29 05:46:16;;;;;;;31.98;24.25;;;19.80;99.90;;;;;;5072887;28;20185;-66
2023/06/29 05:48:43;;;;;;;35.42;25.50;;;19.90;99.90;;;;;;5073043;28;20048;-65
2023/06/29 05:51:09;;;;;;;32.92;24.83;;;19.90;99.90;;;;;;5064128;28;20052;-66
2023/06/29 05:53:35;;;;;;;33.45;24.85;;;19.90;99.90;;;;;;5069947;28;20045;-66
2023/06/29 05:56:01;;;;;;;34.40;24.45;;;20.00;99.90;;;;;;5060909;28;20485;-66
2023/06/29 05:58:28;;;;;;;35.97;26.35;;;20.00;99.90;;;;;;5052420;28;20041;-66
2023/06/29 06:00:54;;;;;;;32.72;26.05;;;20.00;99.90;;;;;;5052800;28;20481;-66
2023/06/29 06:03:22;;;;;;;35.83;26.08;;;20.10;99.90;;;;;;5054114;28;20465;-66
2023/06/29 06:05:48;;;;;;;34.70;27.35;;;20.00;99.90;;;;;;5070766;28;20045;-66
2023/06/29 06:08:14;;;;;;;38.88;27.80;;;20.00;99.90;;;;;;5072287;28;20052;-66
2023/06/29 06:10:41;;;;;;;40.08;26.25;;;19.90;99.90;;;;;;5072240;28;20385;-64
2023/06/29 06:13:07;;;;;;;32.70;25.65;;;19.90;99.90;;;;;;5071437;28;20453;-64
2023/06/29 06:15:34;;;;;;;36.95;27.08;;;19.90;99.90;;;;;;5072810;28;20048;-67
2023/06/29 06:18:00;;;;;;;36.53;26.95;;;19.90;99.90;;;;;;5073321;28;20040;-63
2023/06/29 06:20:28;;;;;;;34.63;25.50;;;19.90;99.90;;;;;;5073047;28;20098;-64
2023/06/29 06:22:54;;;;;;;34.70;27.67;;;19.90;99.90;;;;;;5055703;28;20064;-64
2023/06/29 06:25:20;;;;;;;37.47;26.90;;;19.80;99.90;;;;;;5073085;28;20048;-64
2023/06/29 06:27:46;;;;;;;37.63;27.55;;;19.80;99.90;;;;;;5073752;28;20086;-66
2023/06/29 06:30:13;;;;;;;35.67;27.13;;;19.80;99.90;;;;;;5072907;28;20107;-63
2023/06/29 06:32:42;;;;;;;33.40;24.25;;;19.80;99.90;;;;;;5055557;28;20369;-64
2023/06/29 06:35:12;;;;;;;33.72;24.98;;;19.80;99.90;;;;;;5072530;28;20048;-63
2023/06/29 06:37:38;;;;;;;33.78;25.52;;;19.90;99.90;;;;;;5072286;28;20493;-63
2023/06/29 06:40:07;;;;;;;34.10;25.55;;;19.90;99.90;;;;;;5072893;28;20110;-66
2023/06/29 06:42:34;;;;;;;34.22;25.15;;;20.00;99.90;;;;;;5072267;28;20473;-63
2023/06/29 06:45:03;;;;;;;33.58;25.35;;;20.00;99.90;;;;;;5072131;28;20174;-64
2023/06/29 06:47:31;;;;;;;32.15;24.33;;;20.00;99.90;;;;;;5072457;28;20106;-64
2023/06/29 06:49:58;;;;;;;32.40;26.02;;;20.00;99.90;;;;;;5072244;28;20048;-64
2023/06/29 06:52:24;;;;;;;33.45;25.42;;;20.00;99.90;;;;;;5072249;28;20377;-63
2023/06/29 06:54:51;;;;;;;35.65;25.05;;;20.20;99.90;;;;;;5069758;28;20044;-64
2023/06/29 06:57:18;;;;;;;38.58;25.88;;;20.10;99.90;;;;;;5073215;28;20058;-63
2023/06/29 06:59:45;;;;;;;36.78;24.20;;;20.30;99.90;;;;;;5056411;28;20439;-64
2023/06/29 07:02:12;;;;;;;32.92;26.70;;;20.30;99.90;;;;;;5077102;28;20045;-63
2023/06/29 07:04:38;;;;;;;34.80;25.10;;;20.30;99.90;;;;;;5076782;28;20055;-64
2023/06/29 07:07:06;;;;;;;33.80;25.65;;;20.50;99.90;;;;;;5058055;28;20080;-65
2023/06/29 07:09:32;;;;;;;37.30;27.40;;;20.50;99.90;;;;;;5059798;28;20048;-64
2023/06/29 07:12:01;;;;;;;34.20;25.98;;;20.60;99.90;;;;;;5077104;28;20084;-63
2023/06/29 07:14:27;;;;;;;35.92;26.48;;;20.50;99.90;;;;;;5076896;28;20099;-63
2023/06/29 07:16:55;;;;;;;36.78;26.42;;;20.60;99.90;;;;;;5076716;28;20118;-63
2023/06/29 07:19:23;;;;;;;33.58;24.70;;;20.70;99.90;;;;;;5042975;28;20040;-63
2023/06/29 07:21:49;;;;;;;35.22;26.95;;;20.70;99.90;;;;;;5076818;28;20052;-64
2023/06/29 07:24:19;;;;;;;36.60;27.65;;;20.70;99.90;;;;;;5076736;28;20130;-64
2023/06/29 07:26:46;;;;;;;36.53;27.48;;;20.70;99.90;;;;;;5076888;28;20366;-64
2023/06/29 07:29:12;;;;;;;36.20;27.40;;;20.60;99.90;;;;;;5076428;28;20479;-64
2023/06/29 07:31:39;;;;;;;40.00;29.85;;;20.70;99.90;;;;;;5059125;28;20052;-63
2023/06/29 07:34:05;;;;;;;37.63;25.92;;;20.70;99.90;;;;;;5069864;28;20079;-66
2023/06/29 07:36:32;;;;;;;37.42;27.08;;;20.80;99.90;;;;;;5096967;28;20052;-66
2023/06/29 07:38:59;;;;;;;40.65;29.27;;;20.70;99.90;;;;;;5096568;28;20040;-64
2023/06/29 07:41:26;;;;;;;42.10;29.63;;;20.80;99.90;;;;;;5096808;28;20047;-63
2023/06/29 07:43:56;;;;;;;37.70;28.85;;;20.90;99.90;;;;;;5078484;28;20426;-64
2023/06/29 07:46:25;;;;;;;36.88;29.58;;;21.10;99.90;;;;;;5097147;28;20056;-64
2023/06/29 07:48:51;;;;;;;39.45;28.52;;;21.20;99.90;;;;;;5096674;28;20113;-64
2023/06/29 07:51:21;;;;;;;38.15;27.80;;;21.30;99.90;;;;;;5096141;28;20472;-64
2023/06/29 07:53:52;;;;;;;43.33;27.98;;;21.50;99.90;;;;;;5096235;28;20451;-64
2023/06/29 07:56:20;;;;;;;37.65;27.75;;;21.70;99.90;;;;;;5097146;28;20036;-64
2023/06/29 07:58:46;;;;;;;37.53;27.02;;;21.60;99.90;;;;;;5096349;28;20044;-64
2023/06/29 08:01:14;;;;;;;33.72;26.10;;;21.80;99.90;;;;;;5096891;28;20089;-64
2023/06/29 08:03:41;;;;;;;37.45;25.45;;;21.80;99.90;;;;;;5095624;28;20419;-64
2023/06/29 08:06:07;;;;;;;35.22;24.45;;;21.70;99.90;;;;;;5096039;28;20052;-64
2023/06/29 08:08:33;;;;;;;34.35;25.42;;;21.90;99.90;;;;;;5096451;28;20044;-64
2023/06/29 08:11:03;;;;;;;35.97;25.35;;;21.80;99.90;;;;;;5095978;28;20076;-64
2023/06/29 08:13:30;;;;;;;35.47;25.80;;;21.70;99.90;;;;;;5095052;28;20044;-65
2023/06/29 08:15:57;;;;;;;35.42;26.27;;;21.60;99.90;;;;;;5096104;28;20048;-64
2023/06/29 08:18:24;;;;;;;35.30;25.25;;;21.70;99.90;;;;;;5077992;28;20048;-64
2023/06/29 08:20:51;;;;;;;31.02;24.38;;;21.70;99.90;;;;;;5096055;28;20048;-65
2023/06/29 08:23:17;;;;;;;31.77;21.80;;;21.60;99.90;;;;;;5095490;28;20411;-65
2023/06/29 08:25:43;;;;;;;30.90;21.90;;;21.60;99.90;;;;;;5095354;28;20058;-65
2023/06/29 08:28:09;;;;;;;30.10;23.00;;;21.40;99.90;;;;;;5095598;28;20082;-65
2023/06/29 08:30:35;;;;;;;32.97;23.52;;;21.40;99.90;;;;;;5095724;28;20052;-64
2023/06/29 08:33:03;;;;;;;33.50;22.77;;;21.40;99.90;;;;;;5095571;28;20051;-64
2023/06/29 08:35:30;;;;;;;29.70;22.42;;;21.40;99.90;;;;;;5061067;28;20048;-65
2023/06/29 08:37:57;;;;;;;31.60;22.05;;;21.40;99.90;;;;;;5095161;28;20109;-64
2023/06/29 08:40:27;;;;;;;30.27;22.50;;;21.50;99.90;;;;;;5078138;28;20063;-64
2023/06/29 08:42:53;;;;;;;34.15;24.52;;;21.60;99.90;;;;;;5077872;28;20071;-64
2023/06/29 08:45:20;;;;;;;33.38;23.83;;;21.60;99.90;;;;;;5060425;28;20114;-65
2023/06/29 08:47:51;;;;;;;32.45;22.60;;;21.60;99.90;;;;;;5077446;28;20051;-65
2023/06/29 08:50:23;;;;;;;35.22;23.63;;;21.50;99.90;;;;;;5095075;28;20048;-64
2023/06/29 08:52:54;;;;;;;30.08;22.23;;;21.50;99.90;;;;;;5061043;28;20052;-65
2023/06/29 08:55:22;;;;;;;32.40;21.88;;;21.50;99.90;;;;;;5076653;28;20051;-65
2023/06/29 08:57:48;;;;;;;32.65;24.23;;;21.50;99.90;;;;;;5060268;28;20048;-64
2023/06/29 09:00:20;;;;;;;28.88;22.17;;;21.50;99.90;;;;;;5075947;28;20048;-65
2023/06/29 09:02:47;;;;;;;32.00;22.60;;;21.40;99.90;;;;;;5094783;28;20101;-66
2023/06/29 09:05:15;;;;;;;30.10;22.27;;;21.40;99.90;;;;;;5093343;28;20059;-65
2023/06/29 09:07:42;;;;;;;33.30;23.15;;;21.40;99.90;;;;;;5094953;28;20040;-65
2023/06/29 09:10:10;;;;;;;32.90;22.45;;;21.40;99.90;;;;;;5076832;28;20048;-64
2023/06/29 09:12:38;;;;;;;29.92;21.00;;;21.40;99.90;;;;;;5076943;28;20411;-65
2023/06/29 09:15:10;;;;;;;30.88;23.23;;;21.50;99.90;;;;;;5059643;28;20040;-65
2023/06/29 09:17:45;;;;;;;33.08;23.30;;;21.60;99.90;;;;;;5076945;28;20051;-65
2023/06/29 09:20:15;;;;;;;33.28;23.08;;;21.60;99.90;;;;;;5060039;28;20080;-65
2023/06/29 09:22:43;;;;;;;33.10;22.92;;;21.70;99.90;;;;;;5077173;28;20074;-64
2023/06/29 09:25:10;;;;;;;32.65;23.20;;;21.90;99.90;;;;;;5094073;28;20464;-65
2023/06/29 09:27:37;;;;;;;33.55;22.60;;;21.90;99.90;;;;;;5094274;28;20453;-65
2023/06/29 09:30:05;;;;;;;33.80;23.08;;;22.00;99.90;;;;;;5094407;28;20048;-64
2023/06/29 09:32:38;;;;;;;29.45;22.00;;;22.00;99.90;;;;;;5076620;28;20052;-64
2023/06/29 09:35:09;;;;;;;31.08;21.90;;;22.10;99.90;;;;;;5080447;28;20048;-66
2023/06/29 09:37:36;;;;;;;30.80;22.02;;;22.10;99.90;;;;;;5094691;28;20040;-65
2023/06/29 09:40:09;;;;;;;32.85;22.83;;;22.20;99.90;;;;;;5094337;28;20479;-66
2023/06/29 09:42:39;;;;;;;30.10;21.95;;;22.30;99.90;;;;;;5059614;28;20113;-66
2023/06/29 09:45:11;;;;;;;29.90;21.67;;;22.30;99.90;;;;;;5086317;28;20052;-66
2023/06/29 09:47:40;;;;;;;32.67;21.67;;;22.30;99.90;;;;;;5094337;28;20047;-64
2023/06/29 09:50:22;;;;;;;28.77;21.55;;;22.30;99.90;;;;;;5075971;28;20051;-65
2023/06/29 09:52:51;;;;;;;29.92;22.42;;;22.30;99.90;;;;;;5093965;28;20055;-64
2023/06/29 09:55:20;;;;;;;32.03;20.98;;;22.20;99.90;;;;;;5093163;28;20048;-66
2023/06/29 09:57:49;;;;;;;31.67;22.52;;;22.30;99.90;;;;;;5093903;28;20051;-65
2023/06/29 10:00:17;;;;;;;30.77;21.83;;;22.30;99.90;;;;;;5093728;28;20047;-65
2023/06/29 10:02:45;;;;;;;30.95;21.65;;;22.40;99.90;;;;;;5075652;28;20052;-64
2023/06/29 10:05:11;;;;;;;32.17;22.70;;;22.50;99.90;;;;;;5059328;28;20114;-64
2023/06/29 10:07:39;;;;;;;29.55;22.35;;;22.50;99.90;;;;;;5076445;28;20047;-65
2023/06/29 10:10:14;;;;;;;30.73;22.70;;;22.70;99.90;;;;;;5075669;28;20443;-65
2023/06/29 10:12:41;;;;;;;32.38;23.25;;;22.70;99.90;;;;;;5091159;28;20105;-65
2023/06/29 10:15:09;;;;;;;30.20;23.83;;;22.90;99.90;;;;;;5093828;28;20043;-65
2023/06/29 10:18:06;;;;;;;28.77;21.27;;;22.90;99.90;;;;;;5058948;28;20464;-64
2023/06/29 10:20:35;;;;;;;33.38;23.50;;;23.00;99.90;;;;;;5070535;28;20048;-65
2023/06/29 10:23:04;;;;;;;31.23;23.17;;;23.10;99.90;;;;;;5093987;28;20040;-65
2023/06/29 10:25:34;;;;;;;30.38;23.10;;;23.20;99.90;;;;;;5093918;28;20110;-64
2023/06/29 10:28:01;;;;;;;33.53;24.33;;;23.10;99.90;;;;;;5094385;28;20048;-64
2023/06/29 10:30:28;;;;;;;32.28;24.63;;;23.20;99.90;;;;;;5093781;28;20452;-65
2023/06/29 10:32:54;;;;;;;35.70;24.65;;;23.20;99.90;;;;;;5093822;28;20040;-65
2023/06/29 10:35:26;;;;;;;30.65;23.98;;;23.40;99.90;;;;;;5077483;28;20063;-65
2023/06/29 10:37:57;;;;;;;32.88;23.63;;;23.50;99.90;;;;;;5079692;28;20056;-65
2023/06/29 10:40:26;;;;;;;35.33;26.83;;;23.60;99.90;;;;;;5097653;28;20052;-64
2023/06/29 10:42:54;;;;;;;34.45;27.05;;;23.60;99.90;;;;;;5097977;28;20060;-65
2023/06/29 10:45:21;;;;;;;33.33;26.35;;;23.60;99.90;;;;;;5097260;28;20050;-65
2023/06/29 10:47:56;;;;;;;35.13;26.63;;;23.90;99.90;;;;;;5097532;28;20048;-65
2023/06/29 10:50:30;;;;;;;37.75;28.52;;;24.20;99.90;;;;;;5097799;28;20074;-65
2023/06/29 10:53:02;;;;;;;33.35;25.95;;;24.40;99.90;;;;;;5079583;28;20395;-65
2023/06/29 10:55:52;;;;;;;32.83;25.95;;;24.50;99.90;;;;;;5097433;28;20047;-66
2023/06/29 10:58:37;;;;;;;34.05;25.27;;;24.70;99.90;;;;;;5079686;28;20054;-65
2023/06/29 11:01:05;;;;;;;34.08;25.33;;;24.90;99.90;;;;;;5097694;28;20098;-65
2023/06/29 11:03:35;;;;;;;32.33;24.83;;;25.00;99.90;;;;;;5095675;28;20054;-64
2023/06/29 11:06:02;;;;;;;33.47;25.70;;;24.80;99.90;;;;;;5092214;28;20063;-65
2023/06/29 11:08:31;;;;;;;29.20;24.50;;;24.90;99.90;;;;;;5097071;28;20047;-65
2023/06/29 11:11:13;;;;;;;30.42;23.73;;;25.00;99.90;;;;;;5097648;28;20048;-65
2023/06/29 11:13:39;;;;;;;29.50;23.13;;;25.20;99.90;;;;;;5097401;28;20123;-65
2023/06/29 11:16:05;;;;;;;36.60;26.80;;;25.30;99.90;;;;;;5079454;28;20056;-65
2023/06/29 11:18:31;;;;;;;33.75;25.13;;;25.30;99.90;;;;;;5097369;28;20055;-64
2023/06/29 11:21:00;;;;;;;35.65;24.92;;;25.20;99.90;;;;;;5096767;28;20048;-66
2023/06/29 11:23:27;;;;;;;35.83;26.50;;;25.20;99.90;;;;;;5097275;28;20059;-65
2023/06/29 11:25:59;;;;;;;32.65;26.70;;;25.10;99.90;;;;;;5097222;28;20067;-65
2023/06/29 11:28:25;;;;;;;33.80;24.40;;;24.80;99.90;;;;;;5097193;28;20058;-64
2023/06/29 11:30:55;;;;;;;30.55;23.92;;;25.00;99.90;;;;;;5096748;28;20052;-65
2023/06/29 11:33:24;;;;;;;33.08;23.77;;;25.00;99.90;;;;;;5096581;28;20097;-65
2023/06/29 11:35:55;;;;;;;33.17;22.85;;;25.00;99.90;;;;;;5078344;28;20425;-65
2023/06/29 11:38:21;;;;;;;34.85;25.38;;;25.10;99.90;;;;;;5096923;28;20052;-64
2023/06/29 11:40:47;;;;;;;37.70;25.85;;;24.90;99.90;;;;;;5096548;28;20056;-65
2023/06/29 11:43:15;;;;;;;36.03;25.73;;;25.10;99.90;;;;;;5097076;28;20106;-65
2023/06/29 11:45:44;;;;;;;33.08;25.02;;;25.20;99.90;;;;;;5078542;28;20060;-65
2023/06/29 11:48:13;;;;;;;36.95;24.30;;;25.10;99.90;;;;;;5094987;28;20075;-66
2023/06/29 11:50:41;;;;;;;31.85;23.40;;;25.20;99.90;;;;;;5096363;28;20040;-65
2023/06/29 11:53:10;;;;;;;34.58;25.02;;;25.10;99.90;;;;;;5062612;28;20048;-65
2023/06/29 11:55:36;;;;;;;32.30;24.70;;;25.10;99.90;;;;;;5096398;28;20044;-64
2023/06/29 11:58:03;;;;;;;33.08;23.05;;;25.10;99.90;;;;;;5096230;28;20056;-64
2023/06/29 12:00:32;;;;;;;40.25;26.65;;;25.00;99.90;;;;;;5078718;28;20059;-65
2023/06/29 12:03:06;;;;;;;38.13;26.00;;;25.00;99.90;;;;;;5096583;28;20044;-64
2023/06/29 12:05:33;;;;;;;37.25;27.40;;;25.00;99.90;;;;;;5078830;28;20059;-64
2023/06/29 12:08:06;;;;;;;35.40;25.58;;;25.00;99.90;;;;;;5096302;28;20048;-65
2023/06/29 12:10:37;;;;;;;37.95;26.52;;;25.10;99.90;;;;;;5095962;28;20072;-64
2023/06/29 12:13:03;;;;;;;35.13;26.75;;;25.10;99.90;;;;;;5095444;28;20085;-65
2023/06/29 12:15:31;;;;;;;35.25;24.17;;;25.30;99.90;;;;;;5077904;28;20494;-64
2023/06/29 12:18:10;;;;;;;31.70;24.00;;;25.40;99.90;;;;;;5095381;28;20044;-64
2023/06/29 12:20:39;;;;;;;33.85;24.35;;;25.50;99.90;;;;;;5095342;28;20044;-65
2023/06/29 12:23:07;;;;;;;32.20;24.13;;;25.50;99.90;;;;;;5095586;28;20040;-65
2023/06/29 12:25:44;;;;;;;38.47;25.50;;;25.60;99.90;;;;;;5060611;28;20105;-65
2023/06/29 12:28:14;;;;;;;28.02;21.60;;;25.70;99.90;;;;;;5077475;28;20376;-64
2023/06/29 12:30:41;;;;;;;29.70;24.05;;;25.60;99.90;;;;;;5095385;28;20048;-65